createdAt,value
2022-10-06T00:02:29.528Z,99.90
2022-10-06T00:05:02.288Z,99.90
2022-10-06T00:07:36.724Z,99.90
2022-10-06T00:10:10.091Z,99.90
2022-10-06T00:12:45.975Z,99.90
2022-10-06T00:15:22.693Z,99.90
2022-10-06T00:17:57.004Z,99.90
2022-10-06T00:20:30.644Z,99.90
2022-10-06T00:23:03.724Z,99.90
2022-10-06T00:25:36.849Z,99.90
2022-10-06T00:28:10.169Z,99.90
2022-10-06T00:30:43.028Z,99.90
2022-10-06T00:33:17.949Z,99.90
2022-10-06T00:35:58.212Z,99.90
2022-10-06T00:38:31.811Z,99.90
2022-10-06T00:41:04.856Z,99.90
2022-10-06T00:43:46.043Z,99.90
2022-10-06T00:46:22.007Z,99.90
2022-10-06T00:49:08.723Z,99.90
2022-10-06T00:51:48.178Z,99.90
2022-10-06T00:54:21.907Z,99.90
2022-10-06T00:56:54.689Z,99.90
2022-10-06T00:59:27.739Z,99.90
2022-10-06T01:02:13.308Z,99.90
2022-10-06T01:04:53.167Z,99.90
2022-10-06T01:07:28.919Z,99.90
2022-10-06T01:10:02.364Z,99.90
2022-10-06T01:12:35.791Z,99.90
2022-10-06T01:15:09.549Z,99.90
2022-10-06T01:17:44.904Z,99.90
2022-10-06T01:20:19.887Z,99.90
2022-10-06T01:23:00.016Z,99.90
2022-10-06T01:25:36.359Z,99.90
2022-10-06T01:28:10.333Z,99.90
2022-10-06T01:30:53.052Z,99.90
2022-10-06T01:33:25.862Z,99.90
2022-10-06T01:35:58.827Z,99.90
2022-10-06T01:38:32.020Z,99.90
2022-10-06T01:41:05.674Z,99.90
2022-10-06T01:43:38.402Z,99.90
2022-10-06T01:46:11.329Z,99.90
2022-10-06T01:48:44.096Z,99.90
2022-10-06T01:51:17.755Z,99.90
2022-10-06T01:53:50.371Z,99.90
2022-10-06T01:56:23.343Z,99.90
2022-10-06T01:58:56.002Z,99.90
2022-10-06T02:01:28.904Z,99.90
2022-10-06T02:04:01.782Z,99.90
2022-10-06T02:06:34.855Z,99.90
2022-10-06T02:09:07.585Z,99.90
2022-10-06T02:11:41.119Z,99.90
2022-10-06T02:14:13.750Z,99.90
2022-10-06T02:16:46.682Z,99.90
2022-10-06T02:19:19.326Z,99.90
2022-10-06T02:21:52.230Z,99.90
2022-10-06T02:24:25.197Z,99.90
2022-10-06T02:26:58.458Z,99.90
2022-10-06T02:29:31.230Z,99.90
2022-10-06T02:32:04.318Z,99.90
2022-10-06T02:34:36.994Z,99.90
2022-10-06T02:37:10.768Z,99.90
2022-10-06T02:39:43.390Z,99.90
2022-10-06T02:42:16.915Z,99.90
2022-10-06T02:44:51.754Z,99.90
2022-10-06T02:47:24.671Z,99.90
2022-10-06T02:49:57.330Z,99.90
2022-10-06T02:52:37.190Z,99.90
2022-10-06T02:55:10.418Z,99.90
2022-10-06T02:57:43.246Z,99.90
2022-10-06T03:00:15.866Z,99.90
2022-10-06T03:02:48.834Z,99.90
2022-10-06T03:05:21.558Z,99.90
2022-10-06T03:07:54.399Z,99.90
2022-10-06T03:10:27.136Z,99.90
2022-10-06T03:13:00.103Z,99.90
2022-10-06T03:15:32.780Z,99.90
2022-10-06T03:18:06.575Z,99.90
2022-10-06T03:20:39.591Z,99.90
2022-10-06T03:23:13.678Z,99.90
2022-10-06T03:25:56.538Z,99.90
2022-10-06T03:28:30.454Z,99.90
2022-10-06T03:31:05.390Z,99.90
2022-10-06T03:33:38.374Z,99.90
2022-10-06T03:36:13.601Z,99.90
2022-10-06T03:38:46.885Z,99.90
2022-10-06T03:41:22.133Z,99.90
2022-10-06T03:43:56.864Z,99.90
2022-10-06T03:46:31.821Z,99.90
2022-10-06T03:49:05.298Z,99.90
2022-10-06T03:51:40.488Z,99.90
2022-10-06T03:54:13.377Z,99.90
2022-10-06T03:56:46.175Z,99.90
2022-10-06T03:59:19.653Z,99.90
2022-10-06T04:01:53.286Z,99.90
2022-10-06T04:04:27.696Z,99.90
2022-10-06T04:07:00.452Z,99.90
2022-10-06T04:09:33.436Z,99.90
2022-10-06T04:12:06.203Z,99.90
2022-10-06T04:14:39.128Z,99.90
2022-10-06T04:17:11.820Z,99.90
2022-10-06T04:19:44.996Z,99.90
2022-10-06T04:22:17.487Z,99.90
2022-10-06T04:24:50.750Z,99.90
2022-10-06T04:27:29.452Z,99.90
2022-10-06T04:30:02.247Z,99.90
2022-10-06T04:32:35.327Z,99.90
2022-10-06T04:35:08.771Z,99.90
2022-10-06T04:37:41.585Z,99.90
2022-10-06T04:40:14.963Z,99.90
2022-10-06T04:42:49.407Z,99.90
2022-10-06T04:45:22.234Z,99.90
2022-10-06T04:47:54.914Z,99.90
2022-10-06T04:50:27.895Z,99.90
2022-10-06T04:53:00.537Z,99.90
2022-10-06T04:55:33.994Z,99.90
2022-10-06T04:58:06.522Z,99.90
2022-10-06T05:00:39.395Z,99.90
2022-10-06T05:03:13.562Z,99.90
2022-10-06T05:05:46.552Z,99.90
2022-10-06T05:08:19.159Z,99.90
2022-10-06T05:11:06.542Z,99.90
2022-10-06T05:13:39.970Z,99.90
2022-10-06T05:16:15.187Z,99.90
2022-10-06T05:18:48.096Z,99.90
2022-10-06T05:21:23.756Z,99.90
2022-10-06T05:23:56.966Z,99.90
2022-10-06T05:26:34.351Z,99.90
2022-10-06T05:29:07.003Z,99.90
2022-10-06T05:31:41.317Z,99.90
2022-10-06T05:34:13.908Z,99.90
2022-10-06T05:36:47.001Z,99.90
2022-10-06T05:39:19.692Z,99.90
2022-10-06T05:41:53.186Z,99.90
2022-10-06T05:44:26.038Z,99.90
2022-10-06T05:46:59.026Z,99.90
2022-10-06T05:49:31.729Z,99.90
2022-10-06T05:52:04.673Z,99.90
2022-10-06T05:54:37.469Z,99.90
2022-10-06T05:57:10.485Z,99.90
2022-10-06T05:59:43.465Z,99.90
2022-10-06T06:02:16.573Z,99.90
2022-10-06T06:04:49.470Z,99.90
2022-10-06T06:07:22.659Z,99.90
2022-10-06T06:10:02.957Z,99.90
2022-10-06T06:12:38.845Z,99.90
2022-10-06T06:15:30.142Z,99.90
2022-10-06T06:18:06.206Z,99.90
2022-10-06T06:20:39.529Z,99.90
2022-10-06T06:23:12.714Z,99.90
2022-10-06T06:26:01.354Z,99.90
2022-10-06T06:28:37.367Z,99.90
2022-10-06T06:31:20.125Z,99.90
2022-10-06T06:33:56.650Z,99.90
2022-10-06T06:36:36.006Z,99.90
2022-10-06T06:39:11.738Z,99.90
2022-10-06T06:41:46.269Z,99.90
2022-10-06T06:44:19.291Z,99.90
2022-10-06T06:46:52.381Z,99.90
2022-10-06T06:49:25.548Z,99.90
2022-10-06T06:51:58.349Z,99.90
2022-10-06T06:54:31.866Z,99.90
2022-10-06T06:57:04.829Z,99.90
2022-10-06T06:59:38.305Z,99.90
2022-10-06T07:02:12.076Z,99.90
2022-10-06T07:04:45.326Z,99.90
2022-10-06T07:07:19.787Z,99.90
2022-10-06T07:09:53.219Z,99.90
2022-10-06T07:12:26.122Z,99.90
2022-10-06T07:15:17.338Z,99.90
2022-10-06T07:18:08.740Z,99.90
2022-10-06T07:21:00.366Z,99.90
2022-10-06T07:23:51.387Z,99.90
2022-10-06T07:26:24.275Z,99.90
2022-10-06T07:29:01.215Z,99.90
2022-10-06T07:31:36.150Z,99.90
2022-10-06T07:34:09.300Z,99.90
2022-10-06T07:36:54.362Z,99.90
2022-10-06T07:39:27.248Z,99.90
2022-10-06T07:42:00.539Z,99.90
2022-10-06T07:44:33.534Z,99.90
2022-10-06T07:47:07.331Z,99.90
2022-10-06T07:49:40.498Z,99.90
2022-10-06T07:52:13.886Z,99.90
2022-10-06T07:54:46.690Z,99.90
2022-10-06T07:57:19.681Z,99.90
2022-10-06T07:59:52.573Z,99.90
2022-10-06T08:02:30.185Z,99.90
2022-10-06T08:05:05.886Z,99.90
2022-10-06T08:07:38.914Z,99.90
2022-10-06T08:10:11.746Z,99.90
2022-10-06T08:12:45.017Z,99.90
2022-10-06T08:15:18.573Z,99.90
2022-10-06T08:17:54.139Z,99.90
2022-10-06T08:20:28.457Z,99.90
2022-10-06T08:23:01.871Z,99.90
2022-10-06T08:25:38.930Z,99.90
2022-10-06T08:28:13.180Z,99.90
2022-10-06T08:30:46.253Z,99.90
2022-10-06T08:33:21.436Z,99.90
2022-10-06T08:35:54.650Z,99.90
2022-10-06T08:38:28.046Z,99.90
2022-10-06T08:41:01.279Z,99.90
2022-10-06T08:43:35.590Z,99.90
2022-10-06T08:46:09.818Z,99.90
2022-10-06T08:48:42.938Z,99.90
2022-10-06T08:51:27.442Z,99.90
2022-10-06T08:54:21.513Z,99.90
2022-10-06T08:57:13.159Z,99.90
2022-10-06T08:59:53.967Z,99.90
2022-10-06T09:02:31.255Z,99.90
2022-10-06T09:05:06.744Z,99.90
2022-10-06T09:07:59.518Z,99.90
2022-10-06T09:10:53.882Z,99.90
2022-10-06T09:13:45.622Z,99.90
2022-10-06T09:16:28.343Z,99.90
2022-10-06T09:19:15.751Z,99.90
2022-10-06T09:21:54.086Z,99.90
2022-10-06T09:24:36.505Z,99.90
2022-10-06T09:27:38.133Z,99.90
2022-10-06T09:30:14.429Z,99.90
2022-10-06T09:32:51.549Z,99.90
2022-10-06T09:35:26.633Z,99.90
2022-10-06T09:38:08.696Z,99.90
2022-10-06T09:40:51.961Z,99.90
2022-10-06T09:43:27.769Z,99.90
2022-10-06T09:46:41.969Z,99.90
2022-10-06T09:49:18.714Z,99.90
2022-10-06T09:52:03.906Z,99.90
2022-10-06T09:54:38.957Z,99.90
2022-10-06T09:57:26.758Z,99.90
2022-10-06T10:00:00.371Z,99.90
2022-10-06T10:02:37.766Z,99.90
2022-10-06T10:05:22.809Z,99.90
2022-10-06T10:08:26.632Z,99.90
2022-10-06T10:11:27.615Z,99.90
2022-10-06T10:14:00.497Z,99.90
2022-10-06T10:16:35.880Z,99.90
2022-10-06T10:19:24.217Z,99.90
2022-10-06T10:21:57.528Z,99.90
2022-10-06T10:24:50.733Z,99.90
2022-10-06T10:27:33.617Z,99.90
2022-10-06T10:30:11.793Z,99.90
2022-10-06T10:33:06.858Z,99.90
2022-10-06T10:35:46.797Z,99.90
2022-10-06T10:38:24.909Z,99.90
2022-10-06T10:41:20.333Z,99.90
2022-10-06T10:44:10.297Z,99.90
2022-10-06T10:46:49.828Z,99.90
2022-10-06T10:49:30.205Z,99.90
2022-10-06T10:52:20.809Z,99.90
2022-10-06T10:55:18.150Z,99.90
2022-10-06T10:57:58.617Z,99.90
2022-10-06T11:00:38.821Z,99.90
2022-10-06T11:03:12.048Z,99.90
2022-10-06T11:05:51.300Z,99.90
2022-10-06T11:08:52.573Z,99.90
2022-10-06T11:11:49.875Z,99.90
2022-10-06T11:14:44.380Z,99.90
2022-10-06T11:17:44.526Z,98.70
2022-10-06T11:20:29.796Z,97.10
2022-10-06T11:23:12.697Z,97.30
2022-10-06T11:25:50.317Z,97.60
2022-10-06T11:28:45.458Z,96.90
2022-10-06T11:31:55.999Z,98.10
2022-10-06T11:34:29.617Z,96.50
2022-10-06T11:37:21.526Z,95.40
2022-10-06T11:40:06.192Z,93.50
2022-10-06T11:42:58.545Z,92.20
2022-10-06T11:45:59.521Z,91.80
2022-10-06T11:48:33.405Z,91.80
2022-10-06T11:51:27.151Z,92.30
2022-10-06T11:54:00.552Z,91.50
2022-10-06T11:56:34.059Z,90.90
2022-10-06T11:59:28.660Z,90.20
2022-10-06T12:02:02.202Z,90.00
2022-10-06T12:04:35.132Z,90.90
2022-10-06T12:07:10.988Z,91.30
2022-10-06T12:09:51.719Z,91.10
2022-10-06T12:12:25.784Z,91.20
2022-10-06T12:18:54.951Z,91.20
2022-10-06T12:21:46.685Z,90.50
2022-10-06T12:24:44.072Z,90.70
2022-10-06T12:27:35.569Z,91.10
2022-10-06T12:30:21.318Z,90.40
2022-10-06T12:33:05.389Z,90.30
2022-10-06T12:35:42.513Z,90.60
2022-10-06T12:38:34.394Z,89.80
2022-10-06T12:41:14.841Z,90.10
2022-10-06T12:43:55.578Z,89.20
2022-10-06T12:46:43.888Z,88.00
2022-10-06T12:49:35.481Z,86.70
2022-10-06T12:52:35.882Z,87.60
2022-10-06T12:55:21.862Z,86.50
2022-10-06T12:57:55.770Z,88.10
2022-10-06T13:00:40.486Z,87.40
2022-10-06T13:03:25.577Z,87.60
2022-10-06T13:06:03.881Z,87.00
2022-10-06T13:08:39.229Z,86.80
2022-10-06T13:11:21.307Z,87.10
2022-10-06T13:14:08.106Z,85.10
2022-10-06T13:16:47.150Z,85.70
2022-10-06T13:19:28.482Z,84.60
2022-10-06T13:22:06.471Z,85.40
2022-10-06T13:24:39.742Z,82.40
2022-10-06T13:27:18.849Z,83.10
2022-10-06T13:30:11.593Z,82.90
2022-10-06T13:32:44.821Z,83.20
2022-10-06T13:35:20.203Z,81.60
2022-10-06T13:37:55.065Z,81.90
2022-10-06T13:40:44.213Z,83.00
2022-10-06T13:43:19.144Z,82.90
2022-10-06T13:45:54.349Z,83.50
2022-10-06T13:48:28.597Z,82.80
2022-10-06T13:51:03.613Z,83.60
2022-10-06T13:53:38.432Z,83.60
2022-10-06T13:56:38.939Z,83.50
2022-10-06T13:59:40.659Z,81.50
2022-10-06T14:02:23.203Z,81.80
2022-10-06T14:05:29.640Z,82.60
2022-10-06T14:08:12.804Z,82.30
2022-10-06T14:11:09.116Z,83.70
2022-10-06T14:13:56.511Z,83.50
2022-10-06T14:16:32.961Z,83.60
2022-10-06T14:19:06.801Z,83.60
2022-10-06T14:21:42.187Z,83.90
2022-10-06T14:24:23.619Z,84.20
2022-10-06T14:27:02.356Z,84.10
2022-10-06T14:29:38.179Z,84.70
2022-10-06T14:32:15.472Z,83.20
2022-10-06T14:34:48.768Z,81.80
2022-10-06T14:37:21.867Z,81.70
2022-10-06T14:39:56.381Z,80.80
2022-10-06T14:42:30.302Z,81.20
2022-10-06T14:45:04.239Z,81.70
2022-10-06T14:47:37.513Z,82.00
2022-10-06T14:50:10.890Z,81.20
2022-10-06T14:52:43.974Z,82.50
2022-10-06T14:55:20.314Z,82.30
2022-10-06T14:57:54.502Z,82.50
2022-10-06T15:00:29.253Z,82.80
2022-10-06T15:03:02.284Z,83.70
2022-10-06T15:05:55.489Z,84.40
2022-10-06T15:08:30.830Z,84.20
2022-10-06T15:11:04.276Z,85.30
2022-10-06T15:13:42.369Z,85.80
2022-10-06T15:16:17.160Z,86.00
2022-10-06T15:18:53.720Z,86.20
2022-10-06T15:21:27.706Z,86.10
2022-10-06T15:24:05.177Z,85.90
2022-10-06T15:26:56.645Z,87.50
2022-10-06T15:29:30.188Z,87.30
2022-10-06T15:32:06.665Z,87.90
2022-10-06T15:34:39.757Z,86.90
2022-10-06T15:37:15.243Z,87.20
2022-10-06T15:39:51.354Z,86.90
2022-10-06T15:42:28.562Z,86.60
2022-10-06T15:45:07.497Z,86.60
2022-10-06T15:47:40.757Z,86.50
2022-10-06T15:50:18.536Z,86.20
2022-10-06T15:52:52.145Z,86.50
2022-10-06T15:55:25.061Z,86.90
2022-10-06T15:58:00.158Z,87.70
2022-10-06T16:00:34.277Z,87.70
2022-10-06T16:03:25.134Z,89.00
2022-10-06T16:06:00.793Z,89.80
2022-10-06T16:08:36.385Z,90.10
2022-10-06T16:11:09.386Z,90.40
2022-10-06T16:13:42.344Z,90.80
2022-10-06T16:16:15.313Z,91.10
2022-10-06T16:18:50.709Z,91.60
2022-10-06T16:21:23.410Z,92.00
2022-10-06T16:23:56.742Z,92.40
2022-10-06T16:26:29.611Z,93.10
2022-10-06T16:29:02.924Z,93.50
2022-10-06T16:31:35.496Z,94.00
2022-10-06T16:34:08.496Z,94.70
2022-10-06T16:36:41.700Z,95.40
2022-10-06T16:39:17.433Z,96.20
2022-10-06T16:41:51.259Z,97.40
2022-10-06T16:44:24.074Z,98.40
2022-10-06T16:46:56.820Z,99.20
2022-10-06T16:49:29.657Z,99.90
2022-10-06T16:52:02.208Z,99.90
2022-10-06T16:54:35.089Z,99.90
2022-10-06T16:57:08.093Z,99.90
2022-10-06T16:59:44.486Z,99.90
2022-10-06T17:02:19.560Z,99.90
2022-10-06T17:04:52.560Z,99.90
2022-10-06T17:07:25.153Z,99.90
2022-10-06T17:10:18.886Z,99.90
2022-10-06T17:12:50.989Z,99.90
2022-10-06T17:15:23.941Z,99.90
2022-10-06T17:17:56.681Z,99.90
2022-10-06T17:20:29.539Z,99.90
2022-10-06T17:23:02.304Z,99.90
2022-10-06T17:25:35.400Z,99.90
2022-10-06T17:28:08.326Z,99.90
2022-10-06T17:30:51.956Z,99.90
2022-10-06T17:33:25.205Z,99.90
2022-10-06T17:36:03.149Z,99.90
2022-10-06T17:38:50.721Z,99.90
2022-10-06T17:41:28.285Z,99.90
2022-10-06T17:44:06.144Z,99.90
2022-10-06T17:46:42.505Z,99.90
2022-10-06T17:49:20.188Z,99.90
2022-10-06T17:51:55.267Z,99.90
2022-10-06T17:54:28.751Z,99.90
2022-10-06T17:57:01.712Z,99.90
2022-10-06T17:59:34.475Z,99.90
2022-10-06T18:02:12.350Z,99.90
2022-10-06T18:04:47.706Z,99.90
2022-10-06T18:07:20.950Z,99.90
2022-10-06T18:10:12.047Z,99.90
2022-10-06T18:12:45.610Z,99.90
2022-10-06T18:15:18.658Z,99.90
2022-10-06T18:17:52.625Z,99.90
2022-10-06T18:20:30.074Z,99.90
2022-10-06T18:23:03.742Z,99.90
2022-10-06T18:25:36.457Z,99.90
2022-10-06T18:28:10.707Z,99.90
2022-10-06T18:30:50.071Z,99.90
2022-10-06T18:36:16.450Z,99.90
2022-10-06T18:38:52.695Z,99.90
2022-10-06T18:41:28.149Z,99.90
2022-10-06T18:44:01.233Z,99.90
2022-10-06T18:46:53.149Z,99.90
2022-10-06T18:49:26.168Z,99.90
2022-10-06T18:51:59.156Z,99.90
2022-10-06T18:54:35.477Z,99.90
2022-10-06T18:57:09.256Z,99.90
2022-10-06T18:59:42.731Z,99.90
2022-10-06T19:02:15.806Z,99.90
2022-10-06T19:04:49.036Z,99.90
2022-10-06T19:07:22.481Z,99.90
2022-10-06T19:09:55.464Z,99.90
2022-10-06T19:12:28.343Z,99.90
2022-10-06T19:15:01.434Z,99.90
2022-10-06T19:17:34.715Z,99.90
2022-10-06T19:20:11.223Z,99.90
2022-10-06T19:22:48.036Z,99.90
2022-10-06T19:25:21.946Z,99.90
2022-10-06T19:27:54.715Z,99.90
2022-10-06T19:30:27.641Z,99.90
2022-10-06T19:33:00.580Z,99.90
2022-10-06T19:35:33.799Z,99.90
2022-10-06T19:38:06.623Z,99.90
2022-10-06T19:40:39.672Z,99.90
2022-10-06T19:43:12.391Z,99.90
2022-10-06T19:45:58.767Z,99.90
2022-10-06T19:48:31.745Z,99.90
2022-10-06T19:51:13.375Z,99.90
2022-10-06T19:53:51.347Z,99.90
2022-10-06T19:56:25.562Z,99.90
2022-10-06T19:58:59.467Z,99.90
2022-10-06T20:01:33.323Z,99.90
2022-10-06T20:04:06.848Z,99.90
2022-10-06T20:06:41.548Z,99.90
2022-10-06T20:09:17.189Z,99.90
2022-10-06T20:11:51.361Z,99.90
2022-10-06T20:14:27.721Z,99.90
2022-10-06T20:17:00.945Z,99.90
2022-10-06T20:19:34.761Z,99.90
2022-10-06T20:22:07.946Z,99.90
2022-10-06T20:24:42.587Z,99.90
2022-10-06T20:27:15.879Z,99.90
2022-10-06T20:29:48.843Z,99.90
2022-10-06T20:32:23.276Z,99.90
2022-10-06T20:34:55.925Z,99.90
2022-10-06T20:37:28.833Z,99.90
2022-10-06T20:40:20.042Z,99.90
2022-10-06T20:42:55.053Z,99.90
2022-10-06T20:45:27.977Z,99.90
2022-10-06T20:48:01.978Z,99.90
2022-10-06T20:50:34.833Z,99.90
2022-10-06T20:53:07.934Z,99.90
2022-10-06T20:55:40.717Z,99.90
2022-10-06T20:58:14.365Z,99.90
2022-10-06T21:00:47.205Z,99.90
2022-10-06T21:03:20.373Z,99.90
2022-10-06T21:05:53.088Z,99.90
2022-10-06T21:08:31.510Z,99.90
2022-10-06T21:11:04.408Z,99.90
2022-10-06T21:13:38.418Z,99.90
2022-10-06T21:16:12.797Z,99.90
2022-10-06T21:18:47.153Z,99.90
2022-10-06T21:21:20.145Z,99.90
2022-10-06T21:23:53.124Z,99.90
2022-10-06T21:26:26.690Z,99.90
2022-10-06T21:29:00.289Z,99.90
2022-10-06T21:31:33.494Z,99.90
2022-10-06T21:34:06.613Z,99.90
2022-10-06T21:36:39.709Z,99.90
2022-10-06T21:39:13.550Z,99.90
2022-10-06T21:41:46.774Z,99.90
2022-10-06T21:44:19.893Z,99.90
2022-10-06T21:46:55.386Z,99.90
2022-10-06T21:49:28.662Z,99.90
2022-10-06T21:52:04.996Z,99.90
2022-10-06T21:54:38.337Z,99.90
2022-10-06T21:57:11.265Z,99.90
2022-10-06T21:59:44.653Z,99.90
2022-10-06T22:02:17.536Z,99.90
2022-10-06T22:04:50.557Z,99.90
2022-10-06T22:07:23.413Z,99.90
2022-10-06T22:09:56.502Z,99.90
2022-10-06T22:12:29.220Z,99.90
2022-10-06T22:15:02.337Z,99.90
2022-10-06T22:17:35.045Z,99.90
2022-10-06T22:20:08.564Z,99.90
2022-10-06T22:22:41.333Z,99.90
2022-10-06T22:25:14.477Z,99.90
2022-10-06T22:27:47.385Z,99.90
2022-10-06T22:30:22.155Z,99.90
2022-10-06T22:32:55.098Z,99.90
2022-10-06T22:35:28.060Z,99.90
2022-10-06T22:38:00.897Z,99.90
2022-10-06T22:40:34.017Z,99.90
2022-10-06T22:43:06.885Z,99.90
2022-10-06T22:45:40.091Z,99.90
2022-10-06T22:48:13.039Z,99.90
2022-10-06T22:50:46.908Z,99.90
2022-10-06T22:53:26.008Z,99.90
2022-10-06T22:56:00.200Z,99.90
2022-10-06T22:58:32.975Z,99.90
2022-10-06T23:01:11.126Z,99.90
2022-10-06T23:03:45.540Z,99.90
2022-10-06T23:06:18.604Z,99.90
2022-10-06T23:08:51.803Z,99.90
2022-10-06T23:11:24.891Z,99.90
2022-10-06T23:13:57.706Z,99.90
2022-10-06T23:16:30.744Z,99.90
2022-10-06T23:19:03.619Z,99.90
2022-10-06T23:21:40.099Z,99.90
2022-10-06T23:24:12.974Z,99.90
2022-10-06T23:26:46.878Z,99.90
2022-10-06T23:29:19.982Z,99.90
2022-10-06T23:31:53.183Z,99.90
2022-10-06T23:34:26.153Z,99.90
2022-10-06T23:36:59.281Z,99.90
2022-10-06T23:39:32.162Z,99.90
2022-10-06T23:42:05.529Z,99.90
2022-10-06T23:44:38.434Z,99.90
2022-10-06T23:47:11.529Z,99.90
2022-10-06T23:49:44.286Z,99.90
2022-10-06T23:52:17.654Z,99.90
2022-10-06T23:54:50.468Z,99.90
2022-10-06T23:57:23.464Z,99.90
2022-10-06T23:59:56.229Z,99.90
